To NAV CANADA Home Page Login to a new session Search on AWWS site Feedback and Comments Disclaimer Vers la page française équivalente Tips FAQ What's new on the site To the Forecasts and Observations / NOTAM section To "File a Flight Plan" website Publications and other links Update of the User's profile FIC Telephone Numbers My Weather Data Folder Route Weather Data Regional Weather Data Local Weather Data To the Forecasts and Observations / NOTAM section
Request Generated 12/10/2016 at 16:31:36 UTC . Weather information available at that time is displayed.

METAR/TAF

KINDERSLEY/KINDERSLEY REGIONAL/SK    

METAR CYKY 101600Z 10015KT 15SM FEW050 SCT260 M21/M23 A3000 RMK
SC2CI2 SLP234=
SPECI CYKY 101542Z 09011KT 15SM IC FEW050 SCT260 M21/M24 A3001 RMK
SC2CI2 SLP238=
METAR CYKY 101500Z 10013KT 15SM OVC030 M20/M22 A3002 RMK SC8 SLP241=
METAR CYKY 101400Z 09015KT 15SM OVC030 M20/M22 A3004 RMK SC8 WND ESTD
SLP248=

CYKY - No TAF is issued for this station

Your time UTC time
Weather data provided by Environment Canada and NAV CANADA